Time;durP1;ratioP1;P1;durP2;ratioP2;P2;SDS_P1;SDS_P2;PMS_P1;PMS_P2;Temp;Humidity;BMP_temperature;BMP_pressure;BME280_temperature;BME280_humidity;BME280_pressure;Samples;Min_cycle;Max_cycle;Signal;HPM_P1;HPM_P2
2022/08/18 00:01:15;;;;;;;8.68;3.90;;;;;;;-144.47;43.55;53044.78;5057127;28;20036;-64
2022/08/18 00:03:42;;;;;;;7.60;4.20;;;;;;;-144.47;43.59;53058.69;5054081;28;20563;-67
2022/08/18 00:06:07;;;;;;;10.90;4.03;;;;;;;-144.47;43.67;53030.88;5054350;28;20490;-68
2022/08/18 00:08:32;;;;;;;13.60;4.03;;;;;;;-144.47;43.85;53070.59;5053819;28;20035;-66
2022/08/18 00:10:59;;;;;;;11.30;4.43;;;;;;;-144.47;43.94;53030.88;5054174;28;20036;-68
2022/08/18 00:13:24;;;;;;;13.35;4.40;;;;;;;-144.47;43.93;53020.94;5053615;28;20031;-65
2022/08/18 00:15:50;;;;;;;10.25;4.28;;;;;;;-144.47;44.17;53038.81;5054060;28;20024;-68
2022/08/18 00:18:15;;;;;;;9.25;4.07;;;;;;;-144.47;44.26;53054.72;5053860;28;20441;-67
2022/08/18 00:20:41;;;;;;;18.73;4.43;;;;;;;-144.47;44.59;53030.88;5054541;28;20072;-68
2022/08/18 00:23:06;;;;;;;11.23;3.97;;;;;;;-144.47;44.57;53062.66;5072341;28;20474;-66
2022/08/18 00:25:32;;;;;;;6.63;3.60;;;;;;;-144.47;44.54;53062.66;5059368;28;20024;-68
2022/08/18 00:27:57;;;;;;;11.13;4.13;;;;;;;-144.47;44.70;53040.81;5072423;28;20020;-67
2022/08/18 00:30:23;;;;;;;10.77;4.57;;;;;;;-144.47;44.82;53050.75;5072096;28;20393;-67
2022/08/18 00:32:54;;;;;;;10.57;4.60;;;;;;;-144.47;44.84;53007.03;5053849;28;20043;-67
2022/08/18 00:35:26;;;;;;;12.38;4.38;;;;;;;-144.47;44.86;53046.75;5065386;22;20036;-67
2022/08/18 00:37:53;;;;;;;15.00;5.05;;;;;;;-144.47;44.86;53054.72;5046660;28;20382;-71
2022/08/18 00:40:23;;;;;;;10.52;4.30;;;;;;;-144.47;44.93;53054.72;5023670;28;20387;-71
2022/08/18 00:42:52;;;;;;;9.88;3.92;;;;;;;-144.47;45.11;53030.88;5046193;28;20040;-72
2022/08/18 00:45:24;;;;;;;11.13;4.28;;;;;;;-144.47;45.30;53048.75;5048298;28;20029;-70
2022/08/18 00:47:50;;;;;;;11.00;4.47;;;;;;;-144.47;45.26;53062.66;5026005;28;20021;-71
2022/08/18 00:50:22;;;;;;;6.35;3.85;;;;;;;-144.47;45.38;53062.66;5012709;28;20024;-70
2022/08/18 00:53:11;;;;;;;7.28;3.58;;;;;;;-144.47;45.52;53068.63;5032704;28;20483;-72
2022/08/18 00:55:39;;;;;;;10.00;4.18;;;;;;;-144.47;45.70;53046.75;5019182;28;20124;-69
2022/08/18 00:58:15;;;;;;;10.07;4.10;;;;;;;-144.47;45.68;53058.69;5008729;28;20065;-70
2022/08/18 01:00:43;;;;;;;9.32;3.78;;;;;;;-144.47;45.85;53070.59;5045055;28;20041;-71
2022/08/18 01:03:13;;;;;;;8.15;3.67;;;;;;;-144.47;45.95;53086.50;5028516;28;20039;-67
2022/08/18 01:05:44;;;;;;;13.48;4.30;;;;;;;-144.47;45.97;53094.44;5022609;28;20036;-70
2022/08/18 01:08:15;;;;;;;8.02;4.47;;;;;;;-144.47;46.27;53044.78;5007076;28;20041;-70
2022/08/18 01:10:41;;;;;;;11.07;4.35;;;;;;;-144.47;46.47;53068.63;5023451;28;20446;-71
2022/08/18 01:13:07;;;;;;;9.13;3.92;;;;;;;-144.47;46.65;53060.66;5022328;28;20025;-69
2022/08/18 01:15:33;;;;;;;12.50;4.35;;;;;;;-144.47;46.72;53086.50;4996655;28;20028;-72
2022/08/18 01:21:52;;;;;;;9.80;4.47;;;;;;;-144.47;46.75;53088.47;5036679;28;20036;-69
2022/08/18 01:24:01;;;;;;;10.60;4.03;;;;;;;-144.47;47.04;53054.72;5021939;28;20037;-69
2022/08/18 01:26:29;;;;;;;9.88;4.40;;;;;;;-144.47;47.21;53028.88;5025359;28;20052;-70
2022/08/18 01:28:54;;;;;;;10.38;5.30;;;;;;;-144.47;47.43;53082.53;5041990;28;20108;-67
2022/08/18 01:31:36;;;;;;;12.02;4.68;;;;;;;-144.47;47.80;53060.66;5029608;28;20152;-70
2022/08/18 01:34:03;;;;;;;9.45;4.50;;;;;;;-144.47;47.96;53090.47;5034570;28;20096;-71
2022/08/18 01:36:29;;;;;;;10.18;4.82;;;;;;;-144.47;47.99;53084.50;5013300;28;20017;-68
2022/08/18 01:38:55;;;;;;;9.63;4.38;;;;;;;-144.47;48.26;53072.59;5037663;28;20463;-69
2022/08/18 01:41:21;;;;;;;12.88;4.97;;;;;;;-144.47;48.26;53070.59;5049692;28;20025;-68
2022/08/18 01:43:48;;;;;;;10.05;4.97;;;;;;;-144.47;48.31;53082.53;5047685;28;20391;-72
2022/08/18 01:46:21;;;;;;;14.02;4.90;;;;;;;-144.47;48.06;53100.41;5048606;28;20209;-70
2022/08/18 01:48:47;;;;;;;9.52;4.97;;;;;;;-144.47;48.09;53074.56;5032400;28;20364;-71
2022/08/18 01:51:14;;;;;;;12.82;4.80;;;;;;;-144.47;48.04;53056.69;5033194;28;20027;-70
2022/08/18 01:53:40;;;;;;;11.20;4.85;;;;;;;-144.47;48.24;53088.47;5041923;28;20030;-71
2022/08/18 01:56:07;;;;;;;7.65;4.28;;;;;;;-144.47;48.26;53086.50;5035473;28;20129;-71
2022/08/18 01:58:34;;;;;;;16.10;4.40;;;;;;;-144.47;48.17;53090.47;5030598;28;20071;-70
2022/08/18 02:01:01;;;;;;;8.60;4.15;;;;;;;-144.47;48.17;53066.63;5031056;28;20128;-73
2022/08/18 02:03:34;;;;;;;12.82;4.68;;;;;;;-144.47;48.38;53062.66;5029197;28;20592;-72
2022/08/18 02:06:03;;;;;;;16.45;5.03;;;;;;;-144.47;48.10;53112.31;5016519;28;20508;-69
2022/08/18 02:08:28;;;;;;;11.60;4.90;;;;;;;-144.47;48.05;53074.56;5019423;28;20521;-69
2022/08/18 02:10:57;;;;;;;15.68;5.00;;;;;;;-144.47;48.06;53050.75;5028512;28;20080;-66
2022/08/18 02:13:24;;;;;;;17.30;5.07;;;;;;;-144.47;48.18;53092.44;5029533;28;20479;-69
2022/08/18 02:15:49;;;;;;;18.77;5.35;;;;;;;-144.47;48.41;53104.38;5034573;28;20041;-69
2022/08/18 02:18:27;;;;;;;10.45;4.47;;;;;;;-144.47;48.44;53102.38;5019615;28;20092;-69
2022/08/18 02:20:57;;;;;;;16.20;5.15;;;;;;;-144.47;48.46;53126.22;5018392;28;20622;-68
2022/08/18 02:23:24;;;;;;;12.10;5.30;;;;;;;-144.47;48.60;53094.44;5033471;28;20083;-71
2022/08/18 02:25:50;;;;;;;13.27;5.63;;;;;;;-144.47;48.50;53064.66;5011742;28;20431;-70
2022/08/18 02:28:15;;;;;;;17.63;5.28;;;;;;;-144.47;48.36;53080.53;5011117;28;20040;-69
2022/08/18 02:30:41;;;;;;;15.25;4.97;;;;;;;-144.47;48.58;53076.56;5027770;28;20021;-69
2022/08/18 02:33:09;;;;;;;17.05;5.13;;;;;;;-144.47;48.53;53102.38;5022045;28;20455;-69
2022/08/18 02:35:36;;;;;;;18.43;5.20;;;;;;;-144.47;48.49;53110.31;5028859;28;20037;-69
2022/08/18 02:38:03;;;;;;;19.45;5.28;;;;;;;-144.47;48.51;53092.44;5031407;28;20021;-68
2022/08/18 02:40:29;;;;;;;14.73;5.18;;;;;;;-144.47;48.68;53088.47;5049009;28;20048;-69
2022/08/18 02:42:54;;;;;;;15.27;5.10;;;;;;;-144.47;48.85;53096.41;5027973;28;20064;-71
2022/08/18 02:45:22;;;;;;;9.43;5.57;;;;;;;-144.47;48.81;53076.56;5017265;28;20070;-71
2022/08/18 02:47:55;;;;;;;10.80;5.30;;;;;;;-144.47;48.91;53138.13;5017521;28;20021;-71
2022/08/18 02:50:21;;;;;;;17.45;6.18;;;;;;;-144.47;49.03;53118.28;5004178;28;20053;-67
2022/08/18 02:52:46;;;;;;;22.00;5.72;;;;;;;-144.47;49.04;53082.53;5042260;28;20025;-69
2022/08/18 02:55:12;;;;;;;13.70;5.75;;;;;;;-144.47;48.97;53090.47;5031937;28;20033;-70
2022/08/18 02:57:47;;;;;;;10.23;5.90;;;;;;;-144.47;49.11;53108.34;5031075;28;20525;-68
2022/08/18 03:00:15;;;;;;;12.73;5.22;;;;;;;-144.47;48.79;53098.41;5051327;28;20031;-69
2022/08/18 03:02:50;;;;;;;9.00;5.40;;;;;;;-144.47;48.90;53102.38;5047360;28;20523;-68
2022/08/18 03:05:17;;;;;;;16.90;5.50;;;;;;;-144.47;49.00;53074.56;5046220;28;20040;-69
2022/08/18 03:07:44;;;;;;;12.15;5.93;;;;;;;-144.47;49.01;53086.50;5018217;28;20060;-68
2022/08/18 03:10:10;;;;;;;11.43;4.97;;;;;;;-144.47;49.14;53078.53;5031114;28;20101;-67
2022/08/18 03:12:35;;;;;;;7.68;5.07;;;;;;;-144.47;49.15;53062.66;5044570;28;20537;-67
2022/08/18 03:15:02;;;;;;;12.05;5.05;;;;;;;-144.47;49.06;53090.47;5032207;28;20165;-72
2022/08/18 03:17:28;;;;;;;16.00;4.97;;;;;;;-144.47;49.06;53098.41;5014576;28;20025;-70
2022/08/18 03:19:53;;;;;;;21.88;5.78;;;;;;;-144.47;49.11;53082.53;5010931;28;20070;-69
2022/08/18 03:22:19;;;;;;;15.32;5.20;;;;;;;-144.47;49.28;53092.44;5032299;28;20037;-67
2022/08/18 03:24:44;;;;;;;11.82;5.40;;;;;;;-144.47;49.48;53086.50;5027656;28;20064;-68
2022/08/18 03:27:11;;;;;;;12.82;4.97;;;;;;;-144.47;49.38;53074.56;5038664;28;20107;-68
2022/08/18 03:29:36;;;;;;;15.60;5.85;;;;;;;-144.47;49.54;53124.22;5051776;28;20340;-67
2022/08/18 03:32:05;;;;;;;18.88;5.25;;;;;;;-144.47;49.22;53062.66;5050733;28;20474;-70
2022/08/18 03:34:31;;;;;;;;;;;;;;;-144.47;48.59;53056.69;5018269;28;20348;-68
2022/08/18 03:36:57;;;;;;;12.07;4.70;;;;;;;-144.47;48.65;53104.38;5038989;28;19913;-68
2022/08/18 03:39:23;;;;;;;11.23;4.80;;;;;;;-144.47;48.33;53102.38;5050510;28;20100;-69
2022/08/18 03:41:53;;;;;;;11.23;5.03;;;;;;;-144.47;48.04;53078.53;5026846;28;20032;-68
2022/08/18 03:44:20;;;;;;;12.27;4.60;;;;;;;-144.47;48.04;53096.41;5014480;28;20021;-70
2022/08/18 03:46:46;;;;;;;13.77;4.53;;;;;;;-144.47;48.19;53098.41;5031530;28;20037;-68
2022/08/18 03:49:12;;;;;;;10.07;5.05;;;;;;;-144.47;47.72;53070.59;5045242;28;20036;-67
2022/08/18 03:51:42;;;;;;;8.82;5.00;;;;;;;-144.47;47.64;53088.47;5036614;28;20022;-70
2022/08/18 03:54:08;;;;;;;13.02;4.95;;;;;;;-144.47;47.76;53062.66;5027431;28;20017;-70
2022/08/18 03:56:37;;;;;;;15.05;4.57;;;;;;;-144.47;47.79;53136.16;5031504;28;20029;-69
2022/08/18 03:59:20;;;;;;;18.73;4.70;;;;;;;-144.47;47.73;53082.53;5044782;28;20027;-68
2022/08/18 04:01:49;;;;;;;9.18;4.63;;;;;;;-144.47;47.64;53080.53;5040902;28;20116;-68
2022/08/18 04:04:24;;;;;;;10.20;4.80;;;;;;;-144.47;47.55;53064.66;5045086;28;20021;-70
2022/08/18 04:06:58;;;;;;;18.52;4.45;;;;;;;-144.47;47.71;53084.50;5043270;28;20407;-70
2022/08/18 04:09:26;;;;;;;9.98;4.43;;;;;;;-144.47;47.69;53076.56;5030836;28;20483;-72
2022/08/18 04:11:52;;;;;;;;;;;;;;;-144.47;47.54;53086.50;5013797;28;20516;-69
2022/08/18 04:14:23;;;;;;;12.60;4.20;;;;;;;-144.47;47.43;53086.50;5031497;28;19909;-71
2022/08/18 04:16:49;;;;;;;13.32;4.63;;;;;;;-144.47;47.39;53108.34;5032397;28;20221;-68
2022/08/18 04:19:16;;;;;;;23.17;5.60;;;;;;;-144.47;47.55;53102.38;5029743;28;20618;-69
2022/08/18 04:21:43;;;;;;;14.40;4.50;;;;;;;-144.47;47.90;53070.59;5045140;28;20021;-67
2022/08/18 04:24:12;;;;;;;9.68;4.22;;;;;;;-144.47;47.67;53044.78;5041678;28;20037;-70
2022/08/18 04:26:41;;;;;;;16.88;6.68;;;;;;;-144.47;47.84;53112.31;4996170;28;20033;-67
2022/08/18 04:29:12;;;;;;;8.32;4.38;;;;;;;-144.47;47.69;53114.31;5030661;28;20028;-68
2022/08/18 04:31:38;;;;;;;8.70;4.45;;;;;;;-144.47;48.09;53094.44;5014898;28;20037;-69
2022/08/18 04:34:04;;;;;;;12.30;4.93;;;;;;;-144.47;48.26;53076.56;5040757;28;20044;-69
2022/08/18 04:36:32;;;;;;;16.48;4.68;;;;;;;-144.47;48.08;53108.34;5033225;28;20403;-69
2022/08/18 04:38:59;;;;;;;12.07;4.35;;;;;;;-144.47;48.04;53074.56;5029804;28;20267;-67
2022/08/18 04:41:26;;;;;;;9.50;4.70;;;;;;;-144.47;48.18;53098.41;5028581;28;20076;-67
2022/08/18 04:43:57;;;;;;;13.57;4.68;;;;;;;-144.47;48.02;53112.31;5023448;28;20031;-68
2022/08/18 04:46:23;;;;;;;13.93;4.60;;;;;;;-144.47;48.09;53118.28;5050110;28;20104;-69
2022/08/18 04:48:49;;;;;;;10.98;4.53;;;;;;;-144.47;48.14;53072.59;5020951;28;20021;-67
2022/08/18 04:51:17;;;;;;;16.83;4.35;;;;;;;-144.47;48.29;53104.38;5019161;28;20067;-65
2022/08/18 04:53:44;;;;;;;12.75;4.72;;;;;;;-144.47;48.51;53090.47;5012197;28;20075;-69
2022/08/18 04:56:16;;;;;;;18.30;4.68;;;;;;;-144.47;48.20;53078.53;5013496;28;20030;-69
2022/08/18 04:58:42;;;;;;;15.95;4.50;;;;;;;-144.47;48.25;53092.44;5030026;28;20031;-70
2022/08/18 05:01:08;;;;;;;9.82;5.13;;;;;;;-144.47;48.41;53152.03;5031405;28;20025;-68
2022/08/18 05:03:35;;;;;;;10.82;4.72;;;;;;;-144.47;48.39;53088.47;5049698;28;20509;-71
2022/08/18 05:06:03;;;;;;;9.07;4.72;;;;;;;-144.47;48.57;53106.34;5036797;28;20102;-69
2022/08/18 05:08:30;;;;;;;56.55;9.48;;;;;;;-144.47;48.77;53078.53;5018852;28;20048;-69
2022/08/18 05:10:56;;;;;;;25.67;4.50;;;;;;;-144.47;48.55;53090.47;5013259;28;20029;-71
2022/08/18 05:13:24;;;;;;;21.75;4.45;;;;;;;-144.47;48.56;53060.66;5008596;28;20541;-70
2022/08/18 05:16:02;;;;;;;15.05;4.95;;;;;;;-144.47;48.66;53104.38;5006091;28;20108;-69
2022/08/18 05:18:31;;;;;;;30.40;5.00;;;;;;;-144.47;48.53;53116.28;5004886;28;20309;-70
2022/08/18 05:20:58;;;;;;;15.95;5.55;;;;;;;-144.47;48.21;53108.34;5012296;28;20040;-70
2022/08/18 05:23:24;;;;;;;20.25;4.70;;;;;;;-144.47;48.14;53088.47;5031770;28;20029;-69
2022/08/18 05:25:56;;;;;;;15.85;5.07;;;;;;;-144.47;47.89;53102.38;5022893;28;20013;-68
2022/08/18 05:28:21;;;;;;;11.95;4.75;;;;;;;-144.47;48.00;53072.59;4997310;28;20487;-71
2022/08/18 05:30:47;;;;;;;14.32;5.10;;;;;;;-144.47;47.95;53122.25;5050060;28;20268;-71
2022/08/18 05:33:12;;;;;;;16.92;5.90;;;;;;;-144.47;48.01;53116.28;5045937;28;20021;-70
2022/08/18 05:35:53;;;;;;;24.30;5.70;;;;;;;-144.47;48.04;53118.28;5023247;28;20114;-70
2022/08/18 05:38:43;;;;;;;19.35;5.30;;;;;;;-144.47;48.29;53138.13;5029039;28;20392;-71
2022/08/18 05:41:11;;;;;;;10.63;5.30;;;;;;;-144.47;48.09;53098.41;5025398;28;20029;-68
2022/08/18 05:43:37;;;;;;;14.05;5.22;;;;;;;-144.47;48.21;53082.53;5049707;28;20514;-70
2022/08/18 05:46:06;;;;;;;14.75;6.75;;;;;;;-144.47;48.18;53048.75;5048415;28;20103;-69
2022/08/18 05:48:32;;;;;;;11.43;5.60;;;;;;;-144.47;48.00;53116.28;5036507;28;20388;-68
2022/08/18 05:51:07;;;;;;;12.68;4.85;;;;;;;-144.47;47.89;53102.38;5009809;28;20045;-68
2022/08/18 05:59:09;;;;;;;13.18;5.60;;;;;;;-144.47;48.06;53110.31;5035643;28;20027;-67
2022/08/18 06:01:41;;;;;;;11.00;5.60;;;;;;;-144.47;48.30;53098.41;4999752;28;20029;-68
2022/08/18 06:04:44;;;;;;;20.85;7.32;;;;;;;-144.47;48.29;53098.41;5011123;28;20024;-69
2022/08/18 06:07:15;;;;;;;19.38;6.18;;;;;;;-144.47;48.31;53092.44;4979067;28;20553;-70
2022/08/18 06:09:50;;;;;;;11.05;5.95;;;;;;;-144.47;48.41;53068.63;5046404;28;20486;-68
2022/08/18 06:12:23;;;;;;;17.92;7.43;;;;;;;-144.47;48.48;53078.53;5017644;28;20029;-67
2022/08/18 06:14:49;;;;;;;9.85;5.45;;;;;;;-144.47;48.34;53072.59;5044691;28;20041;-69
2022/08/18 06:17:35;;;;;;;10.60;5.20;;;;;;;-144.47;48.19;53086.50;5011646;28;20060;-68
2022/08/18 06:20:19;;;;;;;15.30;6.13;;;;;;;-144.47;48.19;53110.31;5012322;28;20033;-69
2022/08/18 06:22:57;;;;;;;20.80;5.95;;;;;;;-144.47;48.07;53102.38;5011002;28;20283;-69
2022/08/18 06:25:54;;;;;;;14.35;6.15;;;;;;;-144.47;47.93;53066.63;5028009;28;20048;-69
2022/08/18 06:28:20;;;;;;;18.50;6.55;;;;;;;-144.47;47.84;53072.59;5027881;28;20032;-69
2022/08/18 06:31:14;;;;;;;16.80;6.00;;;;;;;-144.47;47.70;53104.38;5011623;28;20067;-67
2022/08/18 06:34:02;;;;;;;19.55;6.85;;;;;;;-144.47;47.77;53076.56;5031423;28;20543;-66
2022/08/18 06:36:36;;;;;;;20.63;7.80;;;;;;;-144.47;47.95;53082.53;5085573;22;20040;-66
2022/08/18 06:39:10;;;;;;;11.32;6.63;;;;;;;-144.47;47.72;53078.53;5073006;28;20085;-70
2022/08/18 06:41:45;;;;;;;14.23;6.82;;;;;;;-144.47;47.33;53080.53;5064097;28;20096;-68
2022/08/18 06:44:35;;;;;;;12.15;5.72;;;;;;;-144.47;47.42;53062.66;5092324;28;20618;-65
2022/08/18 06:47:10;;;;;;;15.82;8.07;;;;;;;-144.47;47.09;53082.53;5089641;28;20031;-67
2022/08/18 06:49:50;;;;;;;15.75;7.32;;;;;;;-144.47;47.25;53066.63;5090727;28;20096;-64
2022/08/18 06:52:18;;;;;;;14.90;7.85;;;;;;;-144.47;47.34;53090.47;5095168;28;20077;-68
2022/08/18 06:54:43;;;;;;;14.73;8.00;;;;;;;-144.47;47.39;53090.47;5094122;28;20099;-66
2022/08/18 06:57:22;;;;;;;23.65;8.60;;;;;;;-144.47;47.56;53074.56;5093455;28;20450;-65
2022/08/18 06:59:54;;;;;;;;;;;;;;;-144.47;47.82;53116.28;5093926;28;20123;-67
2022/08/18 07:02:28;;;;;;;15.23;8.10;;;;;;;-144.47;47.90;53090.47;5092980;28;19939;-67
2022/08/18 07:05:00;;;;;;;19.85;9.02;;;;;;;-144.47;47.71;53078.53;5090756;28;20074;-68
2022/08/18 07:07:45;;;;;;;15.80;9.10;;;;;;;-144.47;47.55;53068.63;5087534;28;20020;-65
2022/08/18 07:10:13;;;;;;;21.17;8.90;;;;;;;-144.47;47.61;53032.88;5073095;28;20032;-68
2022/08/18 07:12:39;;;;;;;29.65;10.00;;;;;;;-144.47;47.63;53086.50;5085453;28;20024;-67
2022/08/18 07:15:06;;;;;;;22.90;10.35;;;;;;;-144.47;47.49;53086.50;5086916;28;20035;-64
2022/08/18 07:17:40;;;;;;;20.13;9.23;;;;;;;-144.47;47.84;53070.59;5085341;28;20049;-65
2022/08/18 07:20:23;;;;;;;20.13;10.43;;;;;;;-144.47;47.99;53086.50;5082011;28;20048;-65
2022/08/18 07:22:54;;;;;;;23.73;10.20;;;;;;;-144.47;47.84;53062.66;5077737;28;20561;-66
2022/08/18 07:25:24;;;;;;;22.15;10.13;;;;;;;-144.47;48.24;53086.50;5099430;28;20451;-68
2022/08/18 07:27:51;;;;;;;26.35;11.45;;;;;;;-144.47;48.52;53102.38;5094101;28;20022;-68
2022/08/18 07:30:18;;;;;;;18.92;10.82;;;;;;;-144.47;48.86;53042.78;5090968;28;20019;-67
2022/08/18 07:33:12;;;;;;;24.58;12.23;;;;;;;-144.47;48.81;53074.56;5096882;28;20108;-68
2022/08/18 07:35:56;;;;;;;21.23;13.07;;;;;;;-144.47;48.74;53036.84;5095858;28;20015;-66
2022/08/18 07:38:30;;;;;;;20.33;11.32;;;;;;;-144.47;48.46;53070.59;5088342;28;20016;-65
2022/08/18 07:41:10;;;;;;;22.98;13.35;;;;;;;-144.47;48.54;53070.59;5086615;28;20034;-67
2022/08/18 07:43:41;;;;;;;32.30;12.27;;;;;;;-144.47;48.24;53086.50;5085958;28;20020;-67
2022/08/18 07:46:23;;;;;;;21.20;11.10;;;;;;;-144.47;48.09;53098.41;5087138;28;20020;-65
2022/08/18 07:48:48;;;;;;;21.67;12.23;;;;;;;-144.47;47.89;53076.56;5086951;28;20027;-65
2022/08/18 07:51:45;;;;;;;23.15;13.00;;;;;;;-144.47;47.64;53074.56;5066514;28;20036;-65
2022/08/18 07:54:45;;;;;;;24.38;13.65;;;;;;;-144.47;47.62;53066.63;5092851;28;20034;-67
2022/08/18 07:57:14;;;;;;;24.00;13.88;;;;;;;-144.47;48.20;53074.56;5046397;28;20047;-66
2022/08/18 07:59:47;;;;;;;26.77;15.70;;;;;;;-144.47;48.19;53066.63;5092595;28;20346;-65
2022/08/18 08:02:38;;;;;;;30.13;14.23;;;;;;;-144.47;48.38;53052.72;5093320;28;20346;-65
2022/08/18 08:05:39;;;;;;;39.13;16.45;;;;;;;-144.47;48.04;53090.47;5084654;28;20020;-66
2022/08/18 08:08:21;;;;;;;24.30;14.30;;;;;;;-144.47;48.52;53090.47;5082321;28;20094;-68
2022/08/18 08:11:13;;;;;;;28.05;15.40;;;;;;;-144.47;48.22;53074.56;5092631;28;20465;-67
2022/08/18 08:14:00;;;;;;;23.45;14.77;;;;;;;-144.47;48.26;53074.56;5093374;28;20073;-66
2022/08/18 08:16:36;;;;;;;25.38;14.65;;;;;;;-144.47;48.17;53092.44;5075296;28;20036;-66
2022/08/18 08:19:16;;;;;;;24.25;14.73;;;;;;;-144.47;48.34;53098.41;5092221;28;20048;-63
2022/08/18 08:21:52;;;;;;;28.17;14.73;;;;;;;-144.47;48.49;53056.69;5074271;28;20011;-66
2022/08/18 08:24:52;;;;;;;29.42;15.73;;;;;;;-144.47;48.86;53068.63;5081618;28;20024;-67
2022/08/18 08:27:28;;;;;;;25.02;15.43;;;;;;;-144.47;48.79;53086.50;5091890;28;20016;-63
2022/08/18 08:30:05;;;;;;;26.23;15.18;;;;;;;-144.47;48.46;53082.53;5092526;28;20072;-65
2022/08/18 08:32:34;;;;;;;24.58;13.73;;;;;;;-144.47;48.24;53098.41;5074514;28;20521;-66
2022/08/18 08:35:18;;;;;;;23.42;13.80;;;;;;;-144.47;48.03;53094.44;5088034;28;20054;-64
2022/08/18 08:37:51;;;;;;;25.63;14.60;;;;;;;-144.47;48.04;53102.38;5091733;28;20024;-64
2022/08/18 08:40:26;;;;;;;30.15;15.90;;;;;;;-144.47;48.41;53080.53;5092024;28;20508;-65
2022/08/18 08:42:59;;;;;;;25.38;14.80;;;;;;;-144.47;48.54;53098.41;5091943;28;20019;-66
2022/08/18 08:45:28;;;;;;;32.15;15.00;;;;;;;-144.47;48.41;53112.31;5091515;28;20465;-67
2022/08/18 08:47:53;;;;;;;;;;;;;;;-144.47;48.44;53092.44;5091905;28;20477;-66
2022/08/18 08:50:24;;;;;;;28.15;15.13;;;;;;;-144.47;48.48;53072.59;5089263;28;19975;-64
2022/08/18 08:53:07;;;;;;;28.00;15.02;;;;;;;-144.47;48.09;53080.53;5091510;28;20015;-67
2022/08/18 08:55:43;;;;;;;23.27;14.68;;;;;;;-144.47;47.73;53076.56;5074281;28;20118;-66
2022/08/18 08:58:25;;;;;;;26.30;16.10;;;;;;;-144.47;48.27;53074.56;5108313;28;20377;-67
2022/08/18 09:00:52;;;;;;;35.72;15.95;;;;;;;-144.47;48.14;53046.75;5105761;28;20073;-66
2022/08/18 09:03:55;;;;;;;23.20;15.80;;;;;;;-144.47;47.77;53064.66;5107304;28;20030;-67
2022/08/18 09:06:56;;;;;;;25.77;16.80;;;;;;;-144.47;47.25;53082.53;5106997;28;20136;-67
2022/08/18 09:09:45;;;;;;;23.85;14.77;;;;;;;-144.47;46.81;53052.72;5107895;28;20051;-66
2022/08/18 09:12:33;;;;;;;25.05;14.07;;;;;;;-144.47;46.48;53068.63;5106175;28;20024;-66
2022/08/18 09:15:36;;;;;;;34.63;15.63;;;;;;;-144.47;46.25;53054.72;5105303;28;20093;-63
2022/08/18 09:18:24;;;;;;;22.38;14.25;;;;;;;-144.47;45.43;53064.66;5106056;28;20035;-68
2022/08/18 09:21:23;;;;;;;27.83;14.25;;;;;;;-144.47;45.03;53044.78;5109398;28;20012;-64
2022/08/18 09:23:56;;;;;;;23.05;14.10;;;;;;;-144.47;45.04;53064.66;5109272;28;20076;-66
2022/08/18 09:26:38;;;;;;;19.42;14.48;;;;;;;-144.47;44.89;53040.81;5095689;28;20027;-64
2022/08/18 09:29:23;;;;;;;22.95;14.50;;;;;;;-144.47;44.71;53040.81;5091053;28;20447;-65
2022/08/18 09:32:17;;;;;;;25.67;14.75;;;;;;;-144.47;44.96;53048.75;5090863;28;20028;-64
2022/08/18 09:35:08;;;;;;;27.95;14.65;;;;;;;-144.47;44.56;53070.59;5090820;28;20382;-66
2022/08/18 09:41:30;;;;;;;22.13;15.20;;;;;;;-144.47;45.13;53064.66;5090167;28;20024;-66
2022/08/18 09:43:53;;;;;;;26.45;15.07;;;;;;;-144.47;45.35;53078.53;5089790;28;20353;-64
2022/08/18 09:46:45;;;;;;;21.58;13.82;;;;;;;-144.47;45.08;53046.75;5064465;28;20034;-67
2022/08/18 09:49:23;;;;;;;23.88;14.38;;;;;;;-144.47;45.03;53048.75;5083392;28;20059;-65
2022/08/18 09:51:53;;;;;;;34.55;15.80;;;;;;;-144.47;44.85;53086.50;5059771;28;20024;-66
2022/08/18 09:54:23;;;;;;;27.77;15.98;;;;;;;-144.47;45.16;53038.81;5082898;28;20036;-66
2022/08/18 09:56:48;;;;;;;28.92;15.60;;;;;;;-144.47;45.29;53076.56;5084510;28;20083;-65
2022/08/18 09:59:32;;;;;;;22.67;14.45;;;;;;;-144.47;44.95;53060.66;5083240;28;20164;-65
2022/08/18 10:02:13;;;;;;;28.00;14.95;;;;;;;-144.47;44.88;53064.66;5085620;28;20039;-66
2022/08/18 10:04:50;;;;;;;24.73;14.70;;;;;;;-144.47;44.76;53013.00;5082201;28;20036;-65
2022/08/18 10:07:56;;;;;;;26.00;14.32;;;;;;;-144.47;44.60;53052.72;5084062;28;20035;-67
2022/08/18 10:10:26;;;;;;;23.02;14.50;;;;;;;-144.47;44.46;53042.78;5019493;28;20025;-68
2022/08/18 10:13:16;;;;;;;34.40;14.82;;;;;;;-144.47;44.39;53042.78;5074332;28;20105;-67
2022/08/18 10:16:15;;;;;;;28.20;15.27;;;;;;;-144.47;44.21;53060.66;5062570;28;20027;-66
2022/08/18 10:19:32;;;;;;;26.63;13.98;;;;;;;-144.47;43.61;53052.72;5083576;28;20073;-67
2022/08/18 10:21:58;;;;;;;27.85;13.15;;;;;;;-144.47;43.96;53028.88;5021451;28;20164;-68
2022/08/18 10:24:34;;;;;;;24.13;13.38;;;;;;;-144.47;43.50;53048.75;5076043;28;20059;-67
2022/08/18 10:27:05;;;;;;;19.27;11.95;;;;;;;-144.47;43.34;53044.78;5082225;28;20107;-66
2022/08/18 10:29:40;;;;;;;28.95;12.00;;;;;;;-144.47;42.96;53015.00;5083468;28;20032;-66
2022/08/18 10:32:08;;;;;;;20.67;12.68;;;;;;;-144.47;42.64;53036.84;5082632;28;20191;-68
2022/08/18 10:34:40;;;;;;;21.45;12.48;;;;;;;-144.47;42.81;53046.75;5055178;28;20106;-64
2022/08/18 10:37:13;;;;;;;21.05;10.80;;;;;;;-144.47;42.14;53032.88;5062228;28;20031;-66
2022/08/18 10:39:38;;;;;;;20.17;13.85;;;;;;;-144.47;42.37;53032.88;5060984;28;20028;-65
2022/08/18 10:42:09;;;;;;;24.85;14.60;;;;;;;-144.47;42.65;53054.72;5081638;28;20016;-67
2022/08/18 10:44:42;;;;;;;20.65;12.75;;;;;;;-144.47;42.99;53034.84;5080781;28;20098;-64
2022/08/18 10:47:09;;;;;;;23.95;12.52;;;;;;;-144.47;43.07;53028.88;5063230;28;20119;-67
2022/08/18 10:49:36;;;;;;;20.77;11.95;;;;;;;-144.47;42.46;53050.75;5062477;28;20024;-68
2022/08/18 10:52:34;;;;;;;29.30;12.57;;;;;;;-144.47;43.28;53030.88;5060541;28;20020;-67
2022/08/18 10:55:31;;;;;;;22.55;12.40;;;;;;;-144.47;43.72;53046.75;5080392;28;20104;-67
2022/08/18 10:58:21;;;;;;;23.13;11.63;;;;;;;-144.47;43.90;53054.72;5037855;28;20495;-66
2022/08/18 11:00:55;;;;;;;23.10;12.30;;;;;;;-144.47;44.05;53076.56;5080728;28;20954;-66
2022/08/18 11:03:31;;;;;;;16.98;12.38;;;;;;;-144.47;44.45;53078.53;5061461;28;20035;-66
2022/08/18 11:06:03;;;;;;;25.77;12.30;;;;;;;-144.47;44.98;53060.66;5044622;28;20028;-68
2022/08/18 11:08:33;;;;;;;21.65;11.20;;;;;;;-144.47;44.71;53046.75;5025084;28;20179;-68
2022/08/18 11:11:06;;;;;;;23.63;11.75;;;;;;;-144.47;44.80;53094.44;5080874;28;20078;-69
2022/08/18 11:14:10;;;;;;;16.75;10.70;;;;;;;-144.47;44.72;53060.66;5053143;28;20111;-65
2022/08/18 11:17:00;;;;;;;29.15;10.55;;;;;;;-144.47;44.90;53046.75;5081763;28;20036;-68
2022/08/18 11:19:25;;;;;;;22.30;10.02;;;;;;;-144.47;45.06;53070.59;5084309;28;20031;-65
2022/08/18 11:21:52;;;;;;;29.77;10.13;;;;;;;-144.47;44.72;53080.53;5060028;28;20039;-68
2022/08/18 11:24:23;;;;;;;23.42;11.27;;;;;;;-144.47;44.99;53050.75;5087127;28;20417;-66
2022/08/18 11:26:55;;;;;;;26.20;10.07;;;;;;;-144.47;44.91;53096.41;5086355;28;20060;-67
2022/08/18 11:29:31;;;;;;;24.05;9.05;;;;;;;-144.47;44.87;53068.63;5086658;28;20081;-67
2022/08/18 11:32:07;;;;;;;18.83;9.75;;;;;;;-144.47;44.66;53034.84;5085457;28;20150;-66
2022/08/18 11:35:02;;;;;;;23.23;9.50;;;;;;;-144.47;44.36;53042.78;5084210;28;20523;-67
2022/08/18 11:37:45;;;;;;;20.27;10.32;;;;;;;-144.47;44.55;53090.47;5081209;28;20427;-63
2022/08/18 11:40:16;;;;;;;17.80;9.60;;;;;;;-144.47;44.56;53070.59;5065535;28;20024;-65
2022/08/18 11:42:52;;;;;;;24.58;9.77;;;;;;;-144.47;44.56;53100.41;5065288;28;20088;-65
2022/08/18 11:45:22;;;;;;;22.80;9.25;;;;;;;-144.47;43.74;53070.59;5064432;28;20150;-66
2022/08/18 11:48:13;;;;;;;16.88;8.48;;;;;;;-144.47;43.87;53084.50;5064485;28;20397;-65
2022/08/18 11:50:54;;;;;;;21.25;9.52;;;;;;;-144.47;43.74;53068.63;5086320;28;20792;-68